Main page


Airports :

K14-fa-1c, Netherlands

Oil platform

latitude: 53-16-10N, longitude: 3-37-40E, elevation: 28 m

Current weather observation

The report was made 21 minutes ago, at 17:25 UTC
Wind 15 kt from the North/Northwest
Temperature 4°C
Humidity 81%
Pressure 1028 hPa
Visibility 10 km or more

METAR: EHKV 201725Z AUTO 34015KT 9999 NSC 04/01 Q1028 W///H///

Time: 18:46 (17:46 UTC)

TAF: missing

Weather observations and forecasts of more than 4000 airports (METAR and TAF reports).

The available stations are represented by yellow and red dots on the map.

Hover mouse over dot to see the name of the station.

Then click to see weather observations and forecasts.

To change the map : click on the green buttons with a black cross to zoom in, on the green button with a dash to zoom out, or on the green arrows for adjacent maps.